Time;durP1;ratioP1;P1;durP2;ratioP2;P2;SDS_P1;SDS_P2;PMS_P1;PMS_P2;Temp;Humidity;BMP_temperature;BMP_pressure;BME280_temperature;BME280_humidity;BME280_pressure;Samples;Min_cycle;Max_cycle;Signal;HPM_P1;HPM_P2
2021/07/02 00:00:22;;;;;;;3.20;2.97;;;;;;;22.23;100.00;97564.81;5130700;28;20245;-62
2021/07/02 00:02:48;;;;;;;3.30;3.00;;;;;;;22.22;100.00;97555.41;5131396;28;20229;-60
2021/07/02 00:05:16;;;;;;;3.30;2.97;;;;;;;22.23;100.00;97557.13;5129081;27;20207;-60
2021/07/02 00:07:42;;;;;;;3.70;3.40;;;;;;;22.22;100.00;97559.66;5112591;28;20758;-60
2021/07/02 00:10:10;;;;;;;3.00;2.80;;;;;;;22.22;100.00;97557.97;5127925;28;20621;-60
2021/07/02 00:12:36;;;;;;;3.70;3.40;;;;;;;22.23;100.00;97553.72;5106245;28;20236;-62
2021/07/02 00:15:04;;;;;;;3.53;3.10;;;;;;;22.22;100.00;97560.53;5130892;28;20194;-60
2021/07/02 00:17:31;;;;;;;3.30;3.00;;;;;;;22.21;100.00;97556.25;5131071;28;20253;-59
2021/07/02 00:19:57;;;;;;;3.60;3.30;;;;;;;22.22;100.00;97563.09;5130839;28;20190;-60
2021/07/02 00:22:24;;;;;;;3.60;3.30;;;;;;;22.23;100.00;97561.41;5130865;28;20221;-60
2021/07/02 00:24:51;;;;;;;3.30;3.00;;;;;;;22.20;100.00;97559.63;5131579;28;20229;-62
2021/07/02 00:27:18;;;;;;;3.57;3.27;;;;;;;22.15;100.00;97545.84;5112538;28;20266;-59
2021/07/02 00:29:44;;;;;;;3.80;3.40;;;;;;;22.22;100.00;97555.41;5112686;28;20285;-59
2021/07/02 00:32:11;;;;;;;3.30;3.00;;;;;;;22.22;100.00;97552.84;5130870;28;20202;-63
2021/07/02 00:34:38;;;;;;;3.63;3.33;;;;;;;22.22;100.00;97551.97;5130911;28;20289;-60
2021/07/02 00:37:05;;;;;;;3.77;3.43;;;;;;;22.21;100.00;97556.25;5092290;28;20254;-60
2021/07/02 00:39:31;;;;;;;3.33;3.03;;;;;;;22.21;100.00;97558.81;5112109;28;20240;-62
2021/07/02 00:41:58;;;;;;;4.10;3.70;;;;;;;22.21;100.00;97558.81;5112846;28;20233;-60
2021/07/02 00:44:45;;;;;;;3.30;3.00;;;;;;;22.20;100.00;97551.09;5130660;28;20230;-60
2021/07/02 00:47:12;;;;;;;3.80;3.20;;;;;;;22.15;100.00;97544.97;5095509;28;20250;-60
2021/07/02 00:49:38;;;;;;;3.57;3.27;;;;;;;22.21;100.00;97550.25;5097847;28;20249;-60
2021/07/02 00:52:06;;;;;;;3.10;2.80;;;;;;;22.22;100.00;97549.41;5132287;27;20240;-62
2021/07/02 00:54:33;;;;;;;3.13;2.83;;;;;;;22.18;100.00;97538.25;5099733;27;20611;-60
2021/07/02 00:57:00;;;;;;;3.10;2.80;;;;;;;22.22;100.00;97544.28;5116492;27;20283;-60
2021/07/02 00:59:27;;;;;;;3.43;3.13;;;;;;;22.21;100.00;97540.00;5130752;27;20657;-59
2021/07/02 01:01:54;;;;;;;3.80;3.40;;;;;;;22.19;100.00;97541.66;5105207;27;20590;-60
2021/07/02 01:04:23;;;;;;;3.90;3.30;;;;;;;22.19;100.00;97541.66;5129709;27;20622;-60
2021/07/02 01:06:51;;;;;;;3.50;3.17;;;;;;;22.21;100.00;97548.56;5130044;27;20250;-60
2021/07/02 01:09:18;;;;;;;3.80;3.47;;;;;;;22.20;100.00;97544.25;5133330;27;20386;-60
2021/07/02 01:11:45;;;;;;;5.87;3.30;;;;;;;22.22;100.00;97541.72;5131945;27;20606;-60
2021/07/02 01:14:11;;;;;;;3.23;3.00;;;;;;;22.21;100.00;97543.44;5134149;27;20354;-62
2021/07/02 01:16:38;;;;;;;3.53;3.20;;;;;;;22.14;100.00;97527.88;5132937;27;20245;-62
2021/07/02 01:19:05;;;;;;;3.40;3.10;;;;;;;22.22;100.00;97541.72;5096818;27;20195;-61
2021/07/02 01:21:32;;;;;;;3.27;2.97;;;;;;;22.19;100.00;97531.41;5133083;27;20230;-60
2021/07/02 01:23:59;;;;;;;3.53;3.23;;;;;;;22.21;100.00;97545.13;5126980;27;20256;-61
2021/07/02 01:26:25;;;;;;;3.40;3.10;;;;;;;22.19;100.00;97539.09;5133338;27;20658;-61
2021/07/02 01:28:52;;;;;;;3.13;2.90;;;;;;;22.21;100.00;97540.91;5129640;27;20261;-60
2021/07/02 01:31:18;;;;;;;3.50;3.20;;;;;;;22.21;100.00;97532.34;5133506;27;20226;-60
2021/07/02 01:33:45;;;;;;;3.57;3.27;;;;;;;22.21;100.00;97538.34;5133839;27;20198;-59
2021/07/02 01:36:16;;;;;;;3.73;3.43;;;;;;;22.20;100.00;97531.44;5127458;27;20715;-61
2021/07/02 01:38:43;;;;;;;3.50;3.20;;;;;;;22.21;100.00;97540.00;5132692;27;20236;-60
2021/07/02 01:41:09;;;;;;;4.07;3.10;;;;;;;22.20;100.00;97541.69;5125174;27;20225;-60
2021/07/02 01:43:36;;;;;;;3.40;3.10;;;;;;;22.18;100.00;97537.38;5126085;27;20651;-60
2021/07/02 01:46:03;;;;;;;3.33;2.90;;;;;;;22.20;100.00;97545.97;5128371;27;20254;-59
2021/07/02 01:48:29;;;;;;;3.23;2.93;;;;;;;22.14;100.00;97530.44;5110368;27;20222;-60
2021/07/02 01:50:56;;;;;;;3.53;3.20;;;;;;;22.18;100.00;97538.25;5126803;27;20687;-60
2021/07/02 01:53:23;;;;;;;3.43;3.13;;;;;;;22.21;100.00;97542.56;5095066;27;20236;-60
2021/07/02 01:55:49;;;;;;;3.50;3.20;;;;;;;22.20;100.00;97538.28;5127754;27;20214;-60
2021/07/02 01:58:16;;;;;;;3.67;3.37;;;;;;;22.20;100.00;97533.16;5110557;27;20230;-60
2021/07/02 02:00:42;;;;;;;3.40;3.10;;;;;;;22.19;100.00;97534.84;5132611;27;20202;-60
2021/07/02 02:03:09;;;;;;;3.60;3.30;;;;;;;22.19;100.00;97531.41;5112904;27;20205;-60
2021/07/02 02:05:36;;;;;;;4.07;3.20;;;;;;;22.19;100.00;97539.97;5113657;27;20232;-60
2021/07/02 02:08:02;;;;;;;3.33;3.10;;;;;;;22.18;100.00;97532.25;5129078;27;20271;-59
2021/07/02 02:10:29;;;;;;;3.70;3.40;;;;;;;22.19;100.00;97534.84;5122817;27;20194;-60
2021/07/02 02:12:56;;;;;;;3.30;3.00;;;;;;;22.19;100.00;97524.63;5130551;27;20222;-60
2021/07/02 02:15:22;;;;;;;3.50;3.20;;;;;;;22.18;100.00;97525.44;5132673;27;20205;-59
2021/07/02 02:17:49;;;;;;;3.73;3.43;;;;;;;22.03;100.00;97496.88;5132931;27;20427;-59
2021/07/02 02:20:16;;;;;;;3.70;3.40;;;;;;;22.20;100.00;97528.06;5131926;27;20233;-61
2021/07/02 02:22:42;;;;;;;4.00;3.60;;;;;;;22.19;100.00;97531.41;5133310;27;20201;-60
2021/07/02 02:25:10;;;;;;;3.23;3.00;;;;;;;22.19;100.00;97528.84;5123455;27;20278;-59
2021/07/02 02:27:37;;;;;;;4.03;3.27;;;;;;;22.17;100.00;97533.94;5123734;27;20214;-61
2021/07/02 02:30:05;;;;;;;5.77;3.73;;;;;;;22.19;100.00;97542.53;5114163;27;20645;-60
2021/07/02 02:32:31;;;;;;;3.30;3.00;;;;;;;22.19;100.00;97546.78;5113868;27;20652;-60
2021/07/02 02:34:58;;;;;;;3.87;3.33;;;;;;;22.10;100.00;97518.38;5132175;27;20288;-59
2021/07/02 02:37:25;;;;;;;3.63;3.33;;;;;;;22.15;100.00;97527.03;5112301;27;20244;-61
2021/07/02 02:39:52;;;;;;;4.97;3.50;;;;;;;22.19;100.00;97531.41;5113671;27;20234;-60
2021/07/02 02:42:19;;;;;;;4.27;3.40;;;;;;;22.18;100.00;97539.94;5131114;27;20285;-62
2021/07/02 02:44:45;;;;;;;4.07;3.53;;;;;;;22.14;100.00;97527.88;5132580;27;20246;-62
2021/07/02 02:47:12;;;;;;;4.67;3.70;;;;;;;22.18;100.00;97533.13;5131681;27;20263;-60
2021/07/02 02:49:39;;;;;;;4.00;3.60;;;;;;;22.18;100.00;97529.69;5131306;27;20211;-60
2021/07/02 02:52:06;;;;;;;3.50;3.20;;;;;;;22.17;100.00;97533.94;5131963;27;20226;-60
2021/07/02 02:54:32;;;;;;;4.20;3.80;;;;;;;22.17;100.00;97533.94;5132356;27;20232;-62
2021/07/02 02:57:05;;;;;;;5.43;3.50;;;;;;;22.17;100.00;97538.22;5131825;27;20751;-60
2021/07/02 02:59:36;;;;;;;4.03;3.63;;;;;;;22.18;100.00;97537.38;5113705;27;20226;-61
2021/07/02 03:02:08;;;;;;;4.53;4.07;;;;;;;22.17;100.00;97538.22;5129003;27;20620;-60
2021/07/02 03:04:35;;;;;;;4.00;3.60;;;;;;;21.76;100.00;97470.53;5128904;27;20203;-62
2021/07/02 03:07:05;;;;;;;4.27;3.80;;;;;;;22.15;100.00;97529.59;5110542;27;20531;-59
2021/07/02 03:09:32;;;;;;;4.33;3.93;;;;;;;22.12;100.00;97525.28;5128567;27;20264;-60
2021/07/02 03:11:58;;;;;;;4.10;3.70;;;;;;;22.15;100.00;97533.03;5131501;27;20281;-59
2021/07/02 03:14:25;;;;;;;4.43;4.00;;;;;;;22.09;100.00;97524.31;5131444;27;20234;-61
2021/07/02 03:16:51;;;;;;;5.63;3.90;;;;;;;22.10;100.00;97526.94;5113481;27;20696;-61
2021/07/02 03:19:18;;;;;;;4.10;3.70;;;;;;;22.07;100.00;97528.53;5113346;28;20616;-60
2021/07/02 03:21:45;;;;;;;3.67;3.37;;;;;;;22.09;100.00;97538.00;5096801;27;20253;-60
2021/07/02 03:24:12;;;;;;;3.47;3.17;;;;;;;22.14;100.00;97545.81;5112912;27;20236;-59
2021/07/02 03:26:39;;;;;;;3.83;3.43;;;;;;;22.12;100.00;97540.66;5131932;27;20217;-59
2021/07/02 03:29:05;;;;;;;3.90;3.47;;;;;;;22.13;100.00;97544.06;5112960;27;20288;-61
2021/07/02 03:31:32;;;;;;;3.50;3.13;;;;;;;22.12;100.00;97550.00;5131536;27;20205;-60
2021/07/02 03:33:59;;;;;;;3.90;3.53;;;;;;;22.15;100.00;97557.75;5113399;27;20569;-60
2021/07/02 03:36:26;;;;;;;3.60;3.30;;;;;;;22.14;100.00;97550.91;5130948;27;20249;-63
2021/07/02 03:38:52;;;;;;;3.23;2.93;;;;;;;22.14;100.00;97545.81;5131318;27;20199;-60
2021/07/02 03:41:19;;;;;;;4.90;3.70;;;;;;;22.14;100.00;97550.91;5131180;27;20285;-60
2021/07/02 03:43:45;;;;;;;5.50;4.00;;;;;;;22.08;100.00;97536.25;5131254;27;20682;-59
2021/07/02 03:46:12;;;;;;;5.63;4.03;;;;;;;22.10;100.00;97539.72;5131445;27;20250;-60
2021/07/02 03:48:39;;;;;;;3.67;3.37;;;;;;;22.14;100.00;97546.66;5130590;28;20264;-60
2021/07/02 03:51:05;;;;;;;3.97;3.57;;;;;;;21.96;100.00;97519.72;5110517;28;20643;-61
2021/07/02 03:53:32;;;;;;;3.87;3.47;;;;;;;22.08;100.00;97543.06;5125876;28;20205;-60
2021/07/02 03:55:58;;;;;;;4.17;3.77;;;;;;;22.09;100.00;97544.81;5129294;28;20287;-60
2021/07/02 03:58:25;;;;;;;4.47;3.63;;;;;;;22.14;100.00;97554.31;5129063;28;20226;-59
2021/07/02 04:00:52;;;;;;;3.87;3.47;;;;;;;22.13;100.00;97547.47;5124361;28;20250;-60
2021/07/02 04:03:19;;;;;;;4.70;3.93;;;;;;;22.13;100.00;97544.94;5118998;28;20207;-61
2021/07/02 04:05:45;;;;;;;5.13;3.80;;;;;;;22.12;100.00;97539.75;5127057;28;20362;-61
2021/07/02 04:08:12;;;;;;;4.17;3.77;;;;;;;22.13;100.00;97547.47;5119030;28;20272;-63
2021/07/02 04:10:38;;;;;;;4.20;3.80;;;;;;;22.14;100.00;97550.91;5112271;28;20285;-61
2021/07/02 04:13:05;;;;;;;4.53;4.13;;;;;;;22.13;100.00;97547.47;5106643;28;20202;-61
2021/07/02 04:15:32;;;;;;;6.23;4.50;;;;;;;22.15;100.00;97550.09;5131585;28;20237;-60
2021/07/02 04:17:58;;;;;;;4.80;4.00;;;;;;;22.13;100.00;97546.59;5130848;28;20289;-61
2021/07/02 04:20:25;;;;;;;4.17;3.77;;;;;;;22.12;100.00;97540.66;5127947;28;20715;-60
2021/07/02 04:22:52;;;;;;;5.17;4.07;;;;;;;22.08;100.00;97531.13;5111772;28;20248;-61
2021/07/02 04:25:19;;;;;;;8.63;4.07;;;;;;;22.12;100.00;97543.19;5103692;28;20306;-60
2021/07/02 04:27:45;;;;;;;4.97;4.00;;;;;;;22.12;100.00;97547.44;5131059;27;20249;-61
2021/07/02 04:30:12;;;;;;;4.70;4.10;;;;;;;22.12;100.00;97547.44;5131220;27;20305;-62
2021/07/02 04:32:39;;;;;;;5.60;4.17;;;;;;;22.09;100.00;97544.81;5108580;27;20232;-62
2021/07/02 04:35:08;;;;;;;6.50;4.90;;;;;;;22.06;98.90;97545.59;5130120;27;20282;-63
2021/07/02 04:37:38;;;;;;;6.37;5.23;;;;;;;22.10;97.36;97560.19;5117753;27;20259;-60
2021/07/02 04:40:07;;;;;;;7.20;4.80;;;;;;;22.09;96.90;97550.78;5109666;27;20222;-60
2021/07/02 04:42:34;;;;;;;7.27;4.70;;;;;;;22.06;98.05;97545.59;5135794;27;20242;-62
2021/07/02 04:45:00;;;;;;;6.40;5.37;;;;;;;21.88;99.18;97513.50;5095022;27;20594;-61
2021/07/02 04:47:27;;;;;;;12.33;4.80;;;;;;;21.97;100.00;97527.44;5097306;27;20265;-63
2021/07/02 04:49:54;;;;;;;12.97;4.70;;;;;;;21.97;100.00;97524.00;5111857;27;20242;-61
2021/07/02 04:52:20;;;;;;;6.03;4.90;;;;;;;22.04;100.00;97539.56;5116826;27;20292;-62
2021/07/02 04:54:47;;;;;;;5.27;3.80;;;;;;;22.12;100.00;97550.00;5124071;27;20222;-63
2021/07/02 04:57:15;;;;;;;4.47;3.70;;;;;;;22.07;100.00;97541.31;5132786;27;20222;-61
2021/07/02 04:59:43;;;;;;;4.60;4.20;;;;;;;22.12;100.00;97548.31;5094139;27;20594;-63
2021/07/02 05:02:09;;;;;;;4.40;4.00;;;;;;;22.06;100.00;97542.16;5104990;27;20273;-60
2021/07/02 05:04:39;;;;;;;5.47;4.30;;;;;;;22.13;100.00;97552.59;5092953;27;20218;-60
2021/07/02 05:07:05;;;;;;;5.90;4.60;;;;;;;22.12;100.00;97547.44;5132599;27;20248;-60
2021/07/02 05:09:33;;;;;;;4.07;3.70;;;;;;;21.99;100.00;97525.75;5129568;27;20257;-62
2021/07/02 05:11:59;;;;;;;5.37;4.23;;;;;;;22.00;100.00;97536.88;5115518;27;20230;-61
2021/07/02 05:14:26;;;;;;;4.23;3.73;;;;;;;21.96;100.00;97532.50;5080990;27;20210;-62
2021/07/02 05:16:53;;;;;;;4.00;3.70;;;;;;;22.10;100.00;97557.63;5093258;28;20219;-63
2021/07/02 05:19:19;;;;;;;4.40;4.00;;;;;;;22.13;100.00;97561.97;5095537;27;20218;-63
2021/07/02 05:21:46;;;;;;;4.57;4.10;;;;;;;22.16;100.00;97554.38;5121400;27;20194;-60
2021/07/02 05:24:12;;;;;;;4.10;3.43;;;;;;;22.15;100.00;97561.19;5131919;27;20305;-60
2021/07/02 05:26:39;;;;;;;7.13;4.33;;;;;;;21.81;100.00;97502.22;5233538;22;20326;-64
2021/07/02 05:29:06;;;;;;;4.27;3.87;;;;;;;21.76;100.00;97490.97;5071726;28;20569;-65
2021/07/02 05:31:32;;;;;;;4.13;3.73;;;;;;;22.12;100.00;97558.56;5039530;28;20196;-64
2021/07/02 05:33:59;;;;;;;4.27;3.87;;;;;;;22.16;100.00;97564.59;5085782;28;20284;-65
2021/07/02 05:36:26;;;;;;;4.20;3.80;;;;;;;21.99;100.00;97551.34;5083450;28;20243;-65
2021/07/02 05:38:52;;;;;;;4.00;3.60;;;;;;;22.18;100.00;97579.22;5022663;28;20197;-65
2021/07/02 05:41:19;;;;;;;4.27;3.80;;;;;;;22.18;100.00;97579.22;5063934;28;20227;-65
2021/07/02 05:43:46;;;;;;;4.80;4.13;;;;;;;22.10;100.00;97567.88;5048507;28;20249;-65
2021/07/02 05:46:12;;;;;;;3.53;3.23;;;;;;;22.17;100.00;97579.16;5036228;28;20224;-65
2021/07/02 05:48:39;;;;;;;3.87;3.47;;;;;;;22.15;100.00;97578.25;5029242;28;20211;-65
2021/07/02 05:51:06;;;;;;;4.83;3.70;;;;;;;22.20;100.00;97590.34;5060373;28;20901;-65
2021/07/02 05:53:34;;;;;;;4.27;3.87;;;;;;;22.19;100.00;97582.59;5044865;28;20774;-65
2021/07/02 05:56:00;;;;;;;4.20;3.80;;;;;;;22.20;100.00;97590.34;5057994;28;20193;-65
2021/07/02 05:58:27;;;;;;;4.10;3.70;;;;;;;22.20;100.00;97585.22;5061189;28;20209;-61
2021/07/02 06:00:53;;;;;;;4.10;3.70;;;;;;;22.19;100.00;97587.72;5066480;28;20574;-61
2021/07/02 06:03:20;;;;;;;4.20;3.80;;;;;;;22.19;100.00;97587.72;5069781;28;20665;-64
2021/07/02 06:05:47;;;;;;;4.33;3.93;;;;;;;22.10;100.00;97575.56;5061526;28;20219;-65
2021/07/02 06:08:13;;;;;;;4.40;4.00;;;;;;;22.21;100.00;97598.88;5056084;28;20260;-65
2021/07/02 06:10:40;;;;;;;4.20;3.80;;;;;;;22.22;100.00;97603.19;5046317;28;20634;-64
2021/07/02 06:13:07;;;;;;;4.37;3.97;;;;;;;22.22;100.00;97598.06;5060733;28;20291;-64
2021/07/02 06:15:33;;;;;;;4.40;4.00;;;;;;;22.21;100.00;97597.22;5060062;28;20290;-63
2021/07/02 06:18:06;;;;;;;4.53;3.90;;;;;;;22.21;100.00;97597.22;5055665;28;20275;-64
2021/07/02 06:20:33;;;;;;;4.63;4.23;;;;;;;22.22;100.00;97598.06;5038622;28;20197;-64
2021/07/02 06:23:00;;;;;;;4.53;4.07;;;;;;;22.22;100.00;97601.50;5054054;28;20662;-64
2021/07/02 06:25:27;;;;;;;4.93;4.03;;;;;;;22.22;100.00;97611.72;5064406;28;20208;-66
2021/07/02 06:27:54;;;;;;;4.23;3.83;;;;;;;22.20;100.00;97600.56;5063844;28;20255;-64
2021/07/02 06:30:21;;;;;;;4.07;3.67;;;;;;;22.13;100.00;97592.69;5047908;28;20275;-64
2021/07/02 06:32:47;;;;;;;5.53;4.40;;;;;;;22.22;100.00;97618.53;5064802;28;20659;-62
2021/07/02 06:35:14;;;;;;;8.73;4.97;;;;;;;22.09;99.07;97589.19;5060701;28;20242;-64
2021/07/02 06:37:47;;;;;;;7.10;4.63;;;;;;;21.02;99.13;97404.44;5064410;28;20728;-65
2021/07/02 06:40:15;;;;;;;7.23;4.70;;;;;;;22.22;99.74;97610.84;5064663;28;20224;-64
2021/07/02 06:42:42;;;;;;;6.50;4.00;;;;;;;;;;5044293;28;20652;-64
2021/07/02 06:45:11;;;;;;;5.63;4.47;;;;;;;22.21;100.00;97627.94;5057086;28;20208;-65
2021/07/02 06:47:55;;;;;;;4.90;4.40;;;;;;;22.10;100.00;97592.59;5057030;28;20221;-65
2021/07/02 06:50:23;;;;;;;5.30;4.10;;;;;;;21.95;100.00;97566.56;5039504;28;20216;-65
2021/07/02 06:52:50;;;;;;;4.70;4.20;;;;;;;22.02;100.00;97577.03;5044093;28;20712;-65
2021/07/02 06:55:17;;;;;;;4.67;4.20;;;;;;;22.21;100.00;97612.56;5041821;28;20238;-64
2021/07/02 06:57:43;;;;;;;5.40;4.10;;;;;;;21.96;100.00;97576.84;5040527;28;20329;-64
2021/07/02 07:00:10;;;;;;;4.37;3.97;;;;;;;22.05;100.00;97589.06;5054142;28;20292;-65
2021/07/02 07:02:37;;;;;;;4.60;4.13;;;;;;;22.22;100.00;97626.22;5054635;28;20243;-62
2021/07/02 07:05:07;;;;;;;4.67;4.20;;;;;;;22.22;100.00;97628.78;5059774;28;20244;-65
2021/07/02 07:07:33;;;;;;;5.83;4.30;;;;;;;22.21;100.00;97622.81;5029075;28;20217;-64
2021/07/02 07:10:00;;;;;;;5.87;3.77;;;;;;;22.22;100.00;97626.22;5065611;28;20347;-60
2021/07/02 07:12:27;;;;;;;4.47;3.90;;;;;;;22.09;100.00;97609.66;5063429;28;20232;-64
2021/07/02 07:14:53;;;;;;;5.30;4.47;;;;;;;22.22;100.00;97629.66;5064495;28;20200;-64
2021/07/02 07:17:20;;;;;;;4.87;4.37;;;;;;;22.23;100.00;97630.53;5066313;28;20295;-62
2021/07/02 07:19:47;;;;;;;5.27;4.20;;;;;;;22.14;100.00;97610.63;5056903;28;20730;-64
2021/07/02 07:22:14;;;;;;;4.57;3.87;;;;;;;22.22;100.00;97621.97;5063539;28;20295;-64
2021/07/02 07:24:40;;;;;;;4.23;3.73;;;;;;;22.23;100.00;97622.84;5066286;28;20276;-64
2021/07/02 07:27:07;;;;;;;4.20;3.80;;;;;;;22.14;100.00;97610.63;5027919;28;20320;-63
2021/07/02 07:29:34;;;;;;;4.37;3.87;;;;;;;22.12;100.00;97611.44;5061512;28;20248;-64
2021/07/02 07:32:01;;;;;;;4.13;3.67;;;;;;;22.22;100.00;97629.66;5062082;28;20200;-63
2021/07/02 07:37:05;;;;;;;4.50;3.80;;;;;;;22.22;100.00;97633.91;5062174;28;20737;-61
2021/07/02 07:39:31;;;;;;;4.83;4.10;;;;;;;22.22;100.00;97631.34;5060707;28;20248;-63
2021/07/02 07:41:58;;;;;;;4.33;3.80;;;;;;;22.18;100.00;97626.97;5053670;28;20209;-64
2021/07/02 07:44:24;;;;;;;5.20;4.27;;;;;;;22.23;100.00;97633.94;5061339;28;20196;-63
2021/07/02 07:46:51;;;;;;;4.17;3.77;;;;;;;22.13;100.00;97624.28;5056016;28;20220;-62
2021/07/02 07:49:18;;;;;;;4.07;3.73;;;;;;;22.14;100.00;97620.88;5064921;28;20204;-63
2021/07/02 07:51:57;;;;;;;4.23;3.77;;;;;;;22.23;100.00;97639.06;5058331;28;20270;-64
2021/07/02 07:54:24;;;;;;;4.10;3.70;;;;;;;22.23;100.00;97639.06;5042267;28;20299;-64
2021/07/02 07:56:50;;;;;;;3.73;3.33;;;;;;;22.21;100.00;97643.28;5058454;28;20299;-61
2021/07/02 07:59:18;;;;;;;4.03;3.70;;;;;;;22.15;100.00;97629.44;5058751;28;20212;-64
2021/07/02 08:01:45;;;;;;;4.00;3.60;;;;;;;22.24;100.00;97647.63;5055457;28;20204;-64
2021/07/02 08:04:14;;;;;;;4.17;3.50;;;;;;;22.19;100.00;97641.50;5050553;28;20203;-65
2021/07/02 08:06:44;;;;;;;4.10;3.80;;;;;;;22.24;100.00;97639.94;5049644;28;20517;-62
2021/07/02 08:09:11;;;;;;;4.73;4.20;;;;;;;22.25;100.00;97639.09;5062011;28;20219;-64
2021/07/02 08:11:39;;;;;;;4.40;3.90;;;;;;;22.24;100.00;97638.25;5067074;28;20287;-65
2021/07/02 08:14:06;;;;;;;3.70;3.40;;;;;;;22.25;100.00;97645.09;5058991;28;20193;-64
2021/07/02 08:16:32;;;;;;;4.00;3.63;;;;;;;22.24;100.00;97645.94;5061193;28;20212;-65
2021/07/02 08:19:00;;;;;;;4.60;3.80;;;;;;;22.17;100.00;97632.91;5063060;28;20200;-66
2021/07/02 08:21:26;;;;;;;4.57;4.17;;;;;;;22.25;100.00;97654.47;5041483;28;20227;-65
2021/07/02 08:23:53;;;;;;;5.97;4.00;;;;;;;22.26;100.00;97658.78;5061896;28;20228;-65
2021/07/02 08:26:19;;;;;;;4.07;3.77;;;;;;;22.22;100.00;97647.56;5023767;28;20212;-64
2021/07/02 08:31:31;;;;;;;4.50;3.83;;;;;;;22.27;100.00;97663.06;5068592;28;20255;-63
2021/07/02 08:34:01;;;;;;;3.60;3.30;;;;;;;22.01;100.00;97616.25;5068925;28;20202;-65
2021/07/02 08:36:28;;;;;;;4.23;3.83;;;;;;;22.18;100.00;97637.22;5047338;28;20236;-64
2021/07/02 08:38:54;;;;;;;4.00;3.60;;;;;;;22.21;100.00;97648.41;5057312;28;20303;-64
2021/07/02 08:41:21;;;;;;;3.97;3.60;;;;;;;22.27;100.00;97665.63;5061125;28;20605;-64
2021/07/02 08:43:48;;;;;;;4.17;3.77;;;;;;;22.27;100.00;97660.50;5062198;28;20354;-64
2021/07/02 08:46:16;;;;;;;4.13;3.70;;;;;;;22.18;100.00;97645.75;5067920;28;20243;-65
2021/07/02 08:48:44;;;;;;;5.00;3.37;;;;;;;22.27;100.00;97660.50;5024742;28;20205;-64
2021/07/02 08:51:11;;;;;;;3.77;3.40;;;;;;;22.24;100.00;97647.63;5039814;28;20712;-62
2021/07/02 08:53:38;;;;;;;3.87;3.47;;;;;;;22.20;100.00;97643.25;5061240;28;20292;-64
2021/07/02 08:56:05;;;;;;;3.87;3.23;;;;;;;22.27;100.00;97653.72;5035915;28;20711;-64
2021/07/02 08:58:32;;;;;;;3.73;3.43;;;;;;;22.28;100.00;97660.56;5046618;28;20723;-62
2021/07/02 09:00:58;;;;;;;3.87;3.47;;;;;;;22.28;100.00;97659.66;5064956;28;20254;-64
2021/07/02 09:03:33;;;;;;;3.97;3.63;;;;;;;22.27;100.00;97651.16;5044217;28;20200;-64
2021/07/02 09:06:05;;;;;;;3.40;3.10;;;;;;;22.28;100.00;97649.44;5062800;28;20257;-64
2021/07/02 09:08:32;;;;;;;3.43;3.13;;;;;;;22.18;100.00;97635.53;5060205;28;20605;-64
2021/07/02 09:10:59;;;;;;;4.10;3.70;;;;;;;22.28;100.00;97660.56;5063325;28;20239;-64
2021/07/02 09:13:42;;;;;;;4.30;3.73;;;;;;;22.23;100.00;97651.84;5058263;28;20646;-64
2021/07/02 09:16:31;;;;;;;3.30;3.00;;;;;;;22.28;100.00;97658.00;5060158;28;20236;-65
2021/07/02 09:18:58;;;;;;;4.13;3.73;;;;;;;22.24;100.00;97652.75;5058169;28;20196;-65
2021/07/02 09:21:29;;;;;;;3.87;3.57;;;;;;;22.29;100.00;97659.72;5043901;28;20280;-64
2021/07/02 09:23:58;;;;;;;3.37;3.07;;;;;;;22.20;100.00;97644.09;5061037;28;20635;-66
2021/07/02 09:26:43;;;;;;;3.60;3.30;;;;;;;22.29;100.00;97661.44;5058760;28;20301;-64
2021/07/02 09:29:23;;;;;;;3.80;3.37;;;;;;;22.29;100.00;97656.31;5066058;28;20639;-65
2021/07/02 09:31:57;;;;;;;3.40;3.10;;;;;;;22.27;100.00;97658.81;5064471;28;20572;-62
2021/07/02 09:34:50;;;;;;;4.00;3.60;;;;;;;22.28;100.00;97659.66;5060243;28;20253;-65
2021/07/02 09:37:29;;;;;;;3.30;3.00;;;;;;;22.28;100.00;97657.09;5065758;28;20220;-64
2021/07/02 09:39:55;;;;;;;3.53;3.23;;;;;;;22.28;100.00;97662.22;5025082;28;20231;-65
2021/07/02 09:42:26;;;;;;;3.20;2.90;;;;;;;22.28;100.00;97659.66;5066410;28;20287;-65
2021/07/02 09:45:08;;;;;;;3.63;3.33;;;;;;;22.28;100.00;97668.22;5062738;28;20232;-64
2021/07/02 09:47:35;;;;;;;3.77;3.47;;;;;;;22.28;100.00;97672.47;5064317;28;20230;-64
2021/07/02 09:50:18;;;;;;;3.50;3.20;;;;;;;22.29;100.00;97671.66;5044506;28;20251;-65
2021/07/02 09:52:44;;;;;;;3.53;3.23;;;;;;;22.28;100.00;97664.78;5063057;28;20224;-63
2021/07/02 09:55:12;;;;;;;3.70;3.40;;;;;;;22.28;100.00;97672.47;5043454;28;20234;-64
2021/07/02 09:57:38;;;;;;;3.67;3.37;;;;;;;22.28;100.00;97670.78;5059005;28;20764;-65
2021/07/02 10:00:16;;;;;;;3.53;3.23;;;;;;;22.28;100.00;97673.34;5058699;28;20644;-63
2021/07/02 10:02:57;;;;;;;3.97;3.43;;;;;;;22.20;100.00;97658.59;5059675;28;20228;-61
2021/07/02 10:05:25;;;;;;;3.57;3.27;;;;;;;22.28;100.00;97673.34;5017940;28;20196;-65
2021/07/02 10:07:59;;;;;;;3.70;3.40;;;;;;;22.29;100.00;97674.22;5042586;28;20299;-64
2021/07/02 10:10:27;;;;;;;3.83;3.50;;;;;;;22.28;100.00;97675.91;5044387;28;20247;-65
2021/07/02 10:12:54;;;;;;;3.43;3.13;;;;;;;22.23;100.00;97658.69;5056668;28;20380;-64
2021/07/02 10:15:21;;;;;;;3.93;3.53;;;;;;;22.24;100.00;97666.41;5061646;28;20208;-62
2021/07/02 10:17:48;;;;;;;4.00;3.60;;;;;;;22.26;100.00;97672.44;5056660;28;20693;-62
2021/07/02 10:20:15;;;;;;;3.60;3.30;;;;;;;22.24;100.00;97662.97;5034498;28;20630;-62
2021/07/02 10:22:43;;;;;;;3.47;3.17;;;;;;;22.15;100.00;97650.78;5055410;28;20296;-62
2021/07/02 10:25:11;;;;;;;4.60;3.50;;;;;;;22.29;100.00;97677.63;5032712;28;20295;-61
2021/07/02 10:27:38;;;;;;;3.53;3.23;;;;;;;22.28;100.00;97675.91;5035470;28;20647;-63
2021/07/02 10:30:07;;;;;;;4.87;3.60;;;;;;;22.29;100.00;97687.03;5056299;28;20224;-63
2021/07/02 10:32:34;;;;;;;4.00;3.60;;;;;;;22.21;100.00;97662.88;5039707;28;20295;-64
2021/07/02 10:35:00;;;;;;;4.37;3.60;;;;;;;22.29;100.00;97674.22;5040256;28;20619;-62
2021/07/02 10:37:27;;;;;;;4.10;3.50;;;;;;;22.29;100.00;97676.78;5041121;28;20636;-64
2021/07/02 10:39:54;;;;;;;4.07;3.47;;;;;;;22.28;100.00;97686.16;5030281;28;20261;-65
2021/07/02 10:42:20;;;;;;;4.73;4.00;;;;;;;22.20;100.00;97671.41;5061835;28;20196;-63
2021/07/02 10:44:53;;;;;;;5.20;3.90;;;;;;;22.29;100.00;97687.03;5037423;28;20232;-64
2021/07/02 10:47:23;;;;;;;6.10;3.80;;;;;;;22.30;100.00;97688.75;5060549;28;20217;-65
2021/07/02 10:49:50;;;;;;;4.93;3.73;;;;;;;22.29;100.00;97681.91;5054215;28;20250;-65
2021/07/02 10:52:21;;;;;;;4.20;3.70;;;;;;;22.29;100.00;97674.22;5038175;28;20201;-64
2021/07/02 10:54:48;;;;;;;5.63;3.53;;;;;;;22.26;100.00;97682.66;5056959;28;20239;-64
2021/07/02 10:57:18;;;;;;;4.80;3.57;;;;;;;22.29;100.00;97690.44;5041390;28;20223;-64
2021/07/02 10:59:50;;;;;;;6.37;3.70;;;;;;;22.29;100.00;97682.75;5063475;28;20606;-64
2021/07/02 11:02:26;;;;;;;4.33;3.80;;;;;;;22.13;100.00;97660.13;5060171;28;20262;-63
2021/07/02 11:04:56;;;;;;;6.10;4.00;;;;;;;22.28;100.00;97680.16;5045760;28;20621;-63
2021/07/02 11:07:24;;;;;;;4.67;3.97;;;;;;;22.28;100.00;97686.16;5066315;28;20244;-64
2021/07/02 11:09:55;;;;;;;5.43;3.73;;;;;;;22.28;100.00;97678.47;5064167;28;20257;-62
2021/07/02 11:12:33;;;;;;;5.90;3.73;;;;;;;22.29;100.00;97676.78;5054140;28;20246;-63
2021/07/02 11:15:05;;;;;;;5.10;3.80;;;;;;;22.28;100.00;97678.47;5064863;28;20752;-62
2021/07/02 11:17:52;;;;;;;6.33;4.23;;;;;;;22.29;100.00;97677.63;5062184;28;20259;-64
2021/07/02 11:20:22;;;;;;;4.97;3.60;;;;;;;22.28;100.00;97686.16;5040174;28;20235;-64
2021/07/02 11:22:50;;;;;;;8.13;3.97;;;;;;;22.27;100.00;97681.88;5062232;28;20235;-64
2021/07/02 11:25:27;;;;;;;5.50;3.10;;;;;;;22.30;100.00;97683.63;5064923;28;20599;-64
2021/07/02 11:27:58;;;;;;;4.57;3.80;;;;;;;22.29;100.00;97681.91;5063012;22;20282;-68
2021/07/02 11:33:08;;;;;;;4.57;4.00;;;;;;;21.46;100.00;97536.09;5054256;28;20193;-67
2021/07/02 11:35:36;;;;;;;6.27;4.00;;;;;;;22.23;100.00;97664.66;5064723;28;20603;-71
2021/07/02 11:38:13;;;;;;;4.60;4.03;;;;;;;22.28;100.00;97678.47;5046912;28;20317;-66